Time;durP1;ratioP1;P1;durP2;ratioP2;P2;SDS_P1;SDS_P2;PMS_P1;PMS_P2;Temp;Humidity;BMP_temperature;BMP_pressure;BME280_temperature;BME280_humidity;BME280_pressure;Samples;Min_cycle;Max_cycle;Signal;HPM_P1;HPM_P2
2023/08/15 00:00:19;;;;;;;10.23;6.20;;;19.20;99.90;;;;;;5096458;28;20086;-71
2023/08/15 00:02:45;;;;;;;9.83;6.50;;;19.20;99.90;;;;;;5094892;28;20075;-71
2023/08/15 00:05:11;;;;;;;9.87;6.20;;;19.10;99.90;;;;;;5096386;28;20040;-71
2023/08/15 00:07:36;;;;;;;10.93;6.73;;;19.10;99.90;;;;;;5096049;28;20506;-71
2023/08/15 00:10:02;;;;;;;10.67;6.73;;;19.10;99.90;;;;;;5096306;28;20127;-71
2023/08/15 00:12:28;;;;;;;11.20;6.83;;;19.20;99.90;;;;;;5096026;28;20520;-71
2023/08/15 00:14:54;;;;;;;10.03;6.87;;;19.20;99.90;;;;;;5096159;28;20039;-71
2023/08/15 00:17:19;;;;;;;11.77;6.27;;;19.20;99.90;;;;;;5096358;28;20048;-71
2023/08/15 00:19:45;;;;;;;13.20;6.17;;;19.20;99.90;;;;;;5095870;28;20937;-71
2023/08/15 00:22:11;;;;;;;9.30;6.30;;;19.20;99.90;;;;;;5096609;28;20145;-72
2023/08/15 00:24:36;;;;;;;12.73;7.13;;;19.20;99.90;;;;;;5095860;28;20123;-71
2023/08/15 00:27:02;;;;;;;12.07;6.83;;;19.20;99.90;;;;;;5095990;28;20092;-71
2023/08/15 00:29:28;;;;;;;9.20;6.80;;;19.20;99.90;;;;;;5095844;28;20047;-71
2023/08/15 00:31:53;;;;;;;12.83;6.87;;;19.20;99.90;;;;;;5095950;28;20051;-71
2023/08/15 00:34:19;;;;;;;11.07;6.17;;;19.20;99.90;;;;;;5094600;28;20051;-71
2023/08/15 00:36:45;;;;;;;12.30;7.50;;;19.20;99.90;;;;;;5095582;28;20476;-71
2023/08/15 00:39:10;;;;;;;9.47;7.03;;;19.20;99.90;;;;;;5095777;28;20043;-71
2023/08/15 00:41:36;;;;;;;9.73;6.87;;;19.20;99.90;;;;;;5094589;28;20044;-71
2023/08/15 00:44:02;;;;;;;10.77;6.33;;;19.20;99.90;;;;;;5095600;28;20127;-71
2023/08/15 00:46:30;;;;;;;10.43;6.47;;;19.20;99.90;;;;;;5095759;28;20122;-71
2023/08/15 00:48:57;;;;;;;10.33;6.20;;;19.10;99.90;;;;;;5095633;28;20457;-71
2023/08/15 00:51:23;;;;;;;10.70;6.03;;;19.20;99.90;;;;;;5095589;28;20119;-71
2023/08/15 00:53:50;;;;;;;10.47;6.53;;;19.20;99.90;;;;;;5095218;28;20048;-71
2023/08/15 00:56:16;;;;;;;10.63;6.40;;;19.20;99.90;;;;;;5095669;28;20118;-71
2023/08/15 00:58:42;;;;;;;13.57;6.27;;;19.20;99.90;;;;;;5095162;28;20080;-71
2023/08/15 01:01:15;;;;;;;10.10;7.13;;;19.20;99.90;;;;;;5095057;28;20448;-71
2023/08/15 01:03:42;;;;;;;12.33;6.83;;;19.20;99.90;;;;;;5094183;28;20520;-71
2023/08/15 01:06:08;;;;;;;12.53;7.07;;;19.10;99.90;;;;;;5095319;28;20047;-71
2023/08/15 01:08:34;;;;;;;11.40;6.33;;;19.10;99.90;;;;;;5094986;28;20040;-71
2023/08/15 01:11:01;;;;;;;12.60;6.63;;;19.00;99.90;;;;;;5094032;28;20460;-71
2023/08/15 01:13:59;;;;;;;10.10;6.10;;;19.00;99.90;;;;;;5077276;28;20456;-71
2023/08/15 01:16:30;;;;;;;9.97;5.80;;;19.00;99.90;;;;;;5095185;28;20051;-71
2023/08/15 01:19:03;;;;;;;13.80;6.67;;;18.90;99.90;;;;;;5093669;28;20044;-71
2023/08/15 01:21:37;;;;;;;9.53;5.73;;;18.80;99.90;;;;;;5094088;28;20159;-71
2023/08/15 01:24:04;;;;;;;10.35;5.88;;;18.90;99.90;;;;;;5095279;28;20044;-71
2023/08/15 01:26:30;;;;;;;9.33;5.80;;;18.80;99.90;;;;;;5094954;28;20050;-71
2023/08/15 01:28:55;;;;;;;12.70;5.97;;;18.80;99.90;;;;;;5093573;28;20044;-71
2023/08/15 01:31:38;;;;;;;12.00;6.20;;;18.80;99.90;;;;;;5094782;28;20127;-71
2023/08/15 01:34:21;;;;;;;9.13;5.90;;;18.80;99.90;;;;;;5094586;28;20074;-71
2023/08/15 01:36:52;;;;;;;9.87;5.03;;;18.70;99.90;;;;;;5094501;28;20044;-71
2023/08/15 01:39:23;;;;;;;11.50;6.07;;;18.70;99.90;;;;;;5094445;28;20484;-72
2023/08/15 01:41:51;;;;;;;9.67;5.70;;;18.70;99.90;;;;;;5094462;28;20089;-71
2023/08/15 01:44:18;;;;;;;11.70;6.13;;;18.70;99.90;;;;;;5094063;28;20069;-71
2023/08/15 01:46:46;;;;;;;11.47;5.73;;;18.70;99.90;;;;;;5094067;28;20455;-71
2023/08/15 01:49:15;;;;;;;9.07;5.57;;;18.70;99.90;;;;;;5094515;28;20071;-71
2023/08/15 01:51:42;;;;;;;10.00;5.87;;;18.70;99.90;;;;;;5094152;28;20043;-71
2023/08/15 01:54:08;;;;;;;11.90;5.87;;;18.70;99.90;;;;;;5094306;28;20040;-71
2023/08/15 01:56:33;;;;;;;11.07;6.27;;;18.70;99.90;;;;;;5094441;28;20126;-71
2023/08/15 01:58:59;;;;;;;11.80;6.83;;;18.70;99.90;;;;;;5093685;28;20075;-71
2023/08/15 02:01:25;;;;;;;9.73;6.33;;;18.70;99.90;;;;;;5094333;28;20097;-71
2023/08/15 02:03:50;;;;;;;14.47;7.40;;;18.70;99.90;;;;;;5092902;28;20376;-71
2023/08/15 02:06:16;;;;;;;12.67;7.73;;;18.70;99.90;;;;;;5094331;28;20044;-71
2023/08/15 02:08:42;;;;;;;12.57;7.60;;;18.70;99.90;;;;;;5092689;28;20036;-71
2023/08/15 02:11:08;;;;;;;14.13;7.77;;;18.70;99.90;;;;;;5094413;28;20044;-71
2023/08/15 02:13:33;;;;;;;8.53;6.30;;;18.70;99.90;;;;;;5092768;28;20089;-71
2023/08/15 02:16:00;;;;;;;12.30;6.93;;;18.70;99.90;;;;;;5093795;28;20047;-71
2023/08/15 02:18:28;;;;;;;16.00;7.70;;;18.70;99.90;;;;;;5094189;28;20058;-71
2023/08/15 02:20:54;;;;;;;11.60;7.27;;;18.70;99.90;;;;;;5093640;28;20079;-71
2023/08/15 02:23:20;;;;;;;12.30;7.17;;;18.70;99.90;;;;;;5093989;28;20105;-71
2023/08/15 02:25:46;;;;;;;12.73;7.00;;;18.70;99.90;;;;;;5092697;28;20047;-71
2023/08/15 02:28:12;;;;;;;9.60;7.30;;;18.70;99.90;;;;;;5092728;28;20376;-71
2023/08/15 02:30:38;;;;;;;11.53;6.73;;;18.70;99.90;;;;;;5093804;28;20482;-71
2023/08/15 02:33:07;;;;;;;9.97;7.37;;;18.70;99.90;;;;;;5093301;28;20044;-71
2023/08/15 02:35:33;;;;;;;10.07;7.03;;;18.70;99.90;;;;;;5092210;28;20131;-71
2023/08/15 02:37:59;;;;;;;11.83;7.40;;;18.60;99.90;;;;;;5093496;28;20052;-71
2023/08/15 02:40:29;;;;;;;11.43;7.00;;;18.60;99.90;;;;;;5092379;28;20125;-71
2023/08/15 02:42:55;;;;;;;12.30;7.47;;;18.60;99.90;;;;;;5093331;28;20044;-71
2023/08/15 02:45:20;;;;;;;10.23;6.70;;;18.50;99.90;;;;;;5093484;28;20098;-71
2023/08/15 02:47:46;;;;;;;13.97;7.57;;;18.50;99.90;;;;;;5093255;28;20048;-71
2023/08/15 02:50:12;;;;;;;16.67;7.23;;;18.50;99.90;;;;;;5093605;28;20533;-71
2023/08/15 02:52:38;;;;;;;13.20;6.93;;;18.50;99.90;;;;;;5093487;28;20051;-71
2023/08/15 02:55:05;;;;;;;13.07;7.17;;;18.50;99.90;;;;;;5091118;28;20036;-71
2023/08/15 02:57:30;;;;;;;11.67;7.60;;;18.40;99.90;;;;;;5093330;28;20044;-71
2023/08/15 02:59:56;;;;;;;13.50;7.07;;;18.40;99.90;;;;;;5093094;28;20047;-71
2023/08/15 03:02:23;;;;;;;14.10;7.60;;;18.40;99.90;;;;;;5093283;28;20102;-71
2023/08/15 03:04:48;;;;;;;12.57;7.30;;;18.40;99.90;;;;;;5093115;28;20044;-71
2023/08/15 03:07:14;;;;;;;11.10;6.80;;;18.40;99.90;;;;;;5092035;28;20387;-71
2023/08/15 03:09:40;;;;;;;10.00;6.30;;;18.40;99.90;;;;;;5075437;28;20480;-71
2023/08/15 03:12:06;;;;;;;11.13;6.80;;;18.40;99.90;;;;;;5092941;28;20040;-71
2023/08/15 03:14:32;;;;;;;11.67;7.23;;;18.40;99.90;;;;;;5093215;28;20097;-71
2023/08/15 03:16:58;;;;;;;11.50;7.40;;;18.50;99.90;;;;;;5092934;28;20133;-71
2023/08/15 03:19:24;;;;;;;13.83;7.50;;;18.50;99.90;;;;;;5092932;28;20094;-71
2023/08/15 03:21:50;;;;;;;12.50;7.53;;;18.50;99.90;;;;;;5092933;28;20036;-71
2023/08/15 03:24:15;;;;;;;12.87;7.07;;;18.50;99.90;;;;;;5093158;28;20483;-71
2023/08/15 03:26:44;;;;;;;12.80;8.10;;;18.50;99.90;;;;;;5093299;28;20044;-72
2023/08/15 03:29:10;;;;;;;11.23;8.27;;;18.60;99.90;;;;;;5091878;28;20472;-71
2023/08/15 03:31:36;;;;;;;11.80;7.37;;;18.60;99.90;;;;;;5091890;28;20051;-71
2023/08/15 03:34:02;;;;;;;15.20;7.80;;;18.50;99.90;;;;;;5091173;28;20056;-71
2023/08/15 03:36:28;;;;;;;10.50;7.57;;;18.60;99.90;;;;;;5093019;28;20044;-71
2023/08/15 03:38:53;;;;;;;13.93;7.67;;;18.60;99.90;;;;;;5091900;28;20052;-71
2023/08/15 03:41:21;;;;;;;11.63;7.83;;;18.60;99.90;;;;;;5092968;28;20044;-71
2023/08/15 03:43:47;;;;;;;12.43;8.30;;;18.60;99.90;;;;;;5075303;28;20048;-71
2023/08/15 03:46:12;;;;;;;14.33;8.23;;;18.60;99.90;;;;;;5092928;28;20069;-71
2023/08/15 03:48:38;;;;;;;14.47;8.50;;;18.60;99.90;;;;;;5092697;28;20479;-71
2023/08/15 03:51:04;;;;;;;14.47;8.57;;;18.60;99.90;;;;;;5092662;28;20047;-71
2023/08/15 03:53:30;;;;;;;14.70;8.10;;;18.70;99.90;;;;;;5092861;28;20036;-71
2023/08/15 03:55:56;;;;;;;13.07;8.93;;;18.70;99.90;;;;;;5091259;28;20044;-71
2023/08/15 03:58:23;;;;;;;14.70;9.47;;;18.70;99.90;;;;;;5093165;28;20040;-71
2023/08/15 04:00:49;;;;;;;11.37;8.20;;;18.60;99.90;;;;;;5092918;28;20380;-71
2023/08/15 04:03:16;;;;;;;14.07;8.53;;;18.60;99.90;;;;;;5092688;28;20065;-71
2023/08/15 04:05:46;;;;;;;13.27;7.97;;;18.60;99.90;;;;;;5091746;28;20044;-71
2023/08/15 04:08:12;;;;;;;12.70;9.20;;;18.60;99.90;;;;;;5094987;28;20127;-72
2023/08/15 04:10:40;;;;;;;13.40;8.83;;;18.60;99.90;;;;;;5078271;28;20051;-71
2023/08/15 04:13:07;;;;;;;14.97;9.63;;;18.60;99.90;;;;;;5094948;28;20146;-71
2023/08/15 04:15:35;;;;;;;13.93;9.27;;;18.60;99.90;;;;;;5096513;28;20075;-71
2023/08/15 04:18:02;;;;;;;16.93;9.40;;;18.60;99.90;;;;;;5096013;28;20045;-71
2023/08/15 04:20:28;;;;;;;13.60;8.43;;;18.60;99.90;;;;;;5096224;28;20357;-71
2023/08/15 04:22:53;;;;;;;12.80;8.30;;;18.60;99.90;;;;;;5095987;28;20040;-71
2023/08/15 04:25:19;;;;;;;13.93;9.10;;;18.50;99.90;;;;;;5096462;28;20040;-71
2023/08/15 04:27:45;;;;;;;13.60;9.07;;;18.50;99.90;;;;;;5095083;28;20131;-71
2023/08/15 04:30:11;;;;;;;10.23;7.87;;;18.60;99.90;;;;;;5095742;28;20043;-71
2023/08/15 04:32:37;;;;;;;14.30;8.40;;;18.60;99.90;;;;;;5095049;28;20548;-71
2023/08/15 04:35:02;;;;;;;12.73;9.00;;;18.50;99.90;;;;;;5095514;28;20052;-71
2023/08/15 04:37:29;;;;;;;14.27;8.47;;;18.50;99.90;;;;;;5095608;28;20087;-71
2023/08/15 04:39:54;;;;;;;14.10;8.83;;;18.50;99.90;;;;;;5095860;28;20044;-71
2023/08/15 04:42:20;;;;;;;13.77;8.73;;;18.50;99.90;;;;;;5094666;28;20502;-71
2023/08/15 04:44:46;;;;;;;13.43;8.57;;;18.50;99.90;;;;;;5094881;28;20550;-71
2023/08/15 04:47:12;;;;;;;12.20;8.07;;;18.50;99.90;;;;;;5095500;28;20044;-71
2023/08/15 04:49:38;;;;;;;12.67;8.13;;;18.50;99.90;;;;;;5095939;28;20044;-71
2023/08/15 04:52:04;;;;;;;10.43;8.93;;;18.50;99.90;;;;;;5094188;28;20051;-71
2023/08/15 04:54:30;;;;;;;13.23;8.33;;;18.50;99.90;;;;;;5095539;28;20135;-71
2023/08/15 04:56:56;;;;;;;13.43;8.93;;;18.50;99.90;;;;;;5095848;28;20044;-71
2023/08/15 04:59:21;;;;;;;12.83;7.23;;;18.50;99.90;;;;;;5095428;28;20040;-71
2023/08/15 05:01:47;;;;;;;14.27;7.37;;;18.50;99.90;;;;;;5094340;28;20036;-71
2023/08/15 05:04:13;;;;;;;10.20;7.07;;;18.50;99.90;;;;;;5095125;28;20040;-71
2023/08/15 05:06:38;;;;;;;10.80;6.13;;;18.50;99.90;;;;;;5094327;28;20540;-72
2023/08/15 05:09:05;;;;;;;13.80;6.37;;;18.50;99.90;;;;;;5094944;28;20044;-71
2023/08/15 05:11:30;;;;;;;11.27;6.50;;;18.40;99.90;;;;;;5095315;28;20044;-71
2023/08/15 05:13:57;;;;;;;11.67;5.80;;;18.50;99.90;;;;;;5095261;28;20040;-71
2023/08/15 05:16:23;;;;;;;12.60;6.13;;;18.40;99.90;;;;;;5094936;28;20101;-72
2023/08/15 05:18:48;;;;;;;12.50;6.00;;;18.50;99.90;;;;;;5094252;28;20468;-71
2023/08/15 05:21:14;;;;;;;11.23;5.57;;;18.50;99.90;;;;;;5094787;28;20090;-71
2023/08/15 05:23:40;;;;;;;13.20;5.40;;;18.50;99.90;;;;;;5094995;28;20278;-72
2023/08/15 05:26:06;;;;;;;10.67;5.30;;;18.50;99.90;;;;;;5092984;28;20051;-71
2023/08/15 05:28:32;;;;;;;8.37;5.47;;;18.40;99.90;;;;;;5094809;28;20048;-71
2023/08/15 05:30:58;;;;;;;12.33;5.87;;;18.40;99.90;;;;;;5093850;28;20091;-72
2023/08/15 05:33:23;;;;;;;12.40;7.03;;;18.40;99.90;;;;;;5094193;28;20102;-71
2023/08/15 05:35:49;;;;;;;11.03;5.50;;;18.40;99.90;;;;;;5094772;28;20114;-72
2023/08/15 05:38:15;;;;;;;10.97;6.40;;;18.40;99.90;;;;;;5093476;28;20043;-72
2023/08/15 05:40:41;;;;;;;11.63;6.50;;;18.30;99.90;;;;;;5093673;28;20047;-72
2023/08/15 05:43:06;;;;;;;11.30;5.93;;;18.30;99.90;;;;;;5094079;28;20083;-71
2023/08/15 05:45:32;;;;;;;12.37;6.37;;;18.30;99.90;;;;;;5093395;28;20042;-72
2023/08/15 05:47:58;;;;;;;16.23;6.57;;;18.30;99.90;;;;;;5093575;28;20380;-72
2023/08/15 05:50:24;;;;;;;11.70;6.27;;;18.30;99.90;;;;;;5094474;28;20371;-71
2023/08/15 05:52:50;;;;;;;11.37;6.00;;;18.40;99.90;;;;;;5076784;28;20040;-72
2023/08/15 05:55:15;;;;;;;11.77;5.67;;;18.40;99.90;;;;;;5094011;28;20032;-72
2023/08/15 05:57:41;;;;;;;12.30;6.17;;;18.50;99.90;;;;;;5094419;28;20040;-72
2023/08/15 06:00:08;;;;;;;10.07;4.70;;;19.20;99.90;;;;;;5094008;28;20047;-72
2023/08/15 06:02:36;;;;;;;8.20;4.27;;;20.40;99.90;;;;;;5094263;28;20051;-72
2023/08/15 06:05:02;;;;;;;7.33;3.73;;;21.80;99.90;;;;;;5094174;28;20085;-71
2023/08/15 06:07:28;;;;;;;11.77;3.83;;;23.10;99.90;;;;;;5094192;28;20050;-72
2023/08/15 06:09:54;;;;;;;9.77;3.60;;;24.30;99.90;;;;;;5093228;28;20036;-72
2023/08/15 06:12:20;;;;;;;12.93;3.53;;;25.40;99.90;;;;;;5092634;28;20540;-72
2023/08/15 06:14:45;;;;;;;8.93;2.97;;;26.30;99.90;;;;;;5093999;28;20036;-72
2023/08/15 06:17:14;;;;;;;8.33;3.03;;;27.00;99.90;;;;;;5093714;28;20047;-72
2023/08/15 06:19:40;;;;;;;8.67;2.77;;;27.70;99.90;;;;;;5093955;28;20040;-72
2023/08/15 06:22:06;;;;;;;14.17;3.67;;;28.10;99.90;;;;;;5093718;28;20043;-72
2023/08/15 06:24:32;;;;;;;8.80;2.80;;;28.30;99.90;;;;;;5093893;28;20376;-72
2023/08/15 06:26:57;;;;;;;11.33;3.60;;;28.30;99.90;;;;;;5093788;28;20495;-72
2023/08/15 06:29:25;;;;;;;10.67;3.40;;;28.40;99.90;;;;;;5093324;28;20047;-72
2023/08/15 06:31:52;;;;;;;8.97;3.20;;;28.40;99.90;;;;;;5093799;28;20056;-72
2023/08/15 06:34:18;;;;;;;10.13;3.33;;;28.50;99.90;;;;;;5091860;28;20147;-72
2023/08/15 06:36:44;;;;;;;9.87;3.77;;;29.20;99.90;;;;;;5093684;28;20551;-72
2023/08/15 06:39:11;;;;;;;9.27;3.33;;;29.70;99.90;;;;;;5093363;28;20044;-72
2023/08/15 06:41:37;;;;;;;10.50;3.83;;;30.00;98.00;;;;;;5093314;28;20494;-72
2023/08/15 06:44:03;;;;;;;8.60;3.10;;;30.60;95.20;;;;;;5093842;28;20055;-72
2023/08/15 06:46:29;;;;;;;9.13;3.55;;;31.00;92.80;;;;;;5093287;28;20075;-72
2023/08/15 06:48:55;;;;;;;9.50;3.40;;;31.40;89.70;;;;;;5093443;28;20133;-72
2023/08/15 06:51:21;;;;;;;8.52;3.40;;;31.90;84.70;;;;;;5093216;28;20050;-72
2023/08/15 06:53:49;;;;;;;8.95;3.40;;;32.30;77.30;;;;;;5093294;28;20547;-70
2023/08/15 06:56:15;;;;;;;11.98;3.70;;;31.50;72.00;;;;;;5093109;28;20032;-70
2023/08/15 06:58:40;;;;;;;10.65;3.78;;;30.70;75.50;;;;;;5093336;28;20051;-72
2023/08/15 07:01:06;;;;;;;10.00;3.22;;;30.00;82.10;;;;;;5093369;28;20047;-72
2023/08/15 07:03:33;;;;;;;10.80;3.55;;;29.60;88.00;;;;;;5093036;28;20050;-72
2023/08/15 07:05:59;;;;;;;9.95;3.60;;;28.90;90.30;;;;;;5093239;28;20460;-72
2023/08/15 07:08:25;;;;;;;9.57;3.33;;;28.70;93.50;;;;;;5092911;28;20043;-73
2023/08/15 07:10:55;;;;;;;8.45;3.55;;;28.40;94.90;;;;;;5093131;28;20360;-73
2023/08/15 07:13:21;;;;;;;10.88;4.15;;;28.20;96.10;;;;;;5092865;28;20040;-73
2023/08/15 07:15:55;;;;;;;9.52;3.13;;;28.60;96.90;;;;;;5093157;28;20036;-73
2023/08/15 07:18:21;;;;;;;8.70;3.08;;;29.50;93.40;;;;;;5093037;28;20047;-73
2023/08/15 07:20:48;;;;;;;8.82;3.53;;;30.60;92.40;;;;;;5075424;28;20084;-73
2023/08/15 07:23:15;;;;;;;9.75;2.92;;;31.50;84.50;;;;;;5091746;28;20055;-74
2023/08/15 07:25:43;;;;;;;8.05;2.92;;;32.10;73.70;;;;;;5075360;28;20047;-74
2023/08/15 07:28:09;;;;;;;7.47;2.90;;;32.40;68.40;;;;;;5093088;28;20104;-74
2023/08/15 07:30:35;;;;;;;8.93;2.75;;;32.50;63.60;;;;;;5092881;28;20473;-74
2023/08/15 07:33:01;;;;;;;8.52;2.60;;;32.80;61.50;;;;;;5092136;28;20055;-73
2023/08/15 07:35:27;;;;;;;9.00;3.00;;;33.10;59.90;;;;;;5092655;28;20108;-73
2023/08/15 07:37:53;;;;;;;8.57;2.95;;;33.50;57.80;;;;;;5092812;28;20052;-73
2023/08/15 07:40:20;;;;;;;9.60;3.58;;;33.90;55.80;;;;;;5092738;28;20051;-73
2023/08/15 07:42:49;;;;;;;8.20;2.90;;;34.20;53.70;;;;;;5095572;28;20357;-73
2023/08/15 07:45:16;;;;;;;7.95;3.60;;;34.30;53.30;;;;;;5096684;28;20062;-73
2023/08/15 07:47:42;;;;;;;8.73;2.90;;;34.30;52.80;;;;;;5096955;28;20372;-73
2023/08/15 07:50:18;;;;;;;7.53;2.90;;;33.50;51.40;;;;;;5096862;28;20043;-72
2023/08/15 07:52:45;;;;;;;10.60;3.60;;;32.80;53.10;;;;;;5096545;28;20388;-69
2023/08/15 07:55:11;;;;;;;9.73;2.70;;;33.10;54.70;;;;;;5096635;28;20043;-70
2023/08/15 07:57:37;;;;;;;8.48;3.15;;;33.50;54.10;;;;;;5096269;28;20047;-73
2023/08/15 08:00:04;;;;;;;6.25;2.80;;;33.60;53.40;;;;;;5096763;28;20148;-70
2023/08/15 08:02:30;;;;;;;7.00;2.60;;;34.00;52.70;;;;;;5096382;28;20036;-70
2023/08/15 08:04:56;;;;;;;5.72;3.28;;;34.40;52.10;;;;;;5096507;28;20047;-72
2023/08/15 08:07:21;;;;;;;7.63;3.00;;;34.60;49.60;;;;;;5094967;28;20038;-72
2023/08/15 08:09:47;;;;;;;5.85;2.70;;;34.40;48.70;;;;;;5096541;28;20047;-70
2023/08/15 08:12:13;;;;;;;6.88;2.47;;;33.90;48.90;;;;;;5095034;28;20383;-71
2023/08/15 08:14:39;;;;;;;6.18;2.47;;;33.00;49.70;;;;;;5096047;28;20044;-71
2023/08/15 08:17:05;;;;;;;6.65;2.75;;;32.10;51.00;;;;;;5096381;28;20048;-70
2023/08/15 08:19:31;;;;;;;6.85;2.53;;;31.30;52.20;;;;;;5096020;28;20046;-68
2023/08/15 08:21:57;;;;;;;7.82;2.78;;;30.70;54.10;;;;;;5096233;28;20379;-71
2023/08/15 08:24:22;;;;;;;4.80;2.05;;;30.40;56.00;;;;;;5095871;28;20035;-72
2023/08/15 08:26:49;;;;;;;8.30;2.92;;;30.10;57.10;;;;;;5096096;28;20130;-72
2023/08/15 08:29:15;;;;;;;7.10;2.38;;;29.80;57.30;;;;;;5096075;28;20075;-72
2023/08/15 08:31:41;;;;;;;6.93;2.20;;;29.40;58.90;;;;;;5095672;28;20052;-69
2023/08/15 08:34:13;;;;;;;7.22;2.20;;;29.10;60.00;;;;;;5095538;28;20044;-70
2023/08/15 08:36:42;;;;;;;6.47;2.50;;;28.80;61.20;;;;;;5094475;28;20539;-69
2023/08/15 08:39:08;;;;;;;5.88;2.10;;;28.40;64.00;;;;;;5095719;28;20065;-70
2023/08/15 08:41:38;;;;;;;7.40;2.13;;;28.20;67.90;;;;;;5095453;28;20050;-71
2023/08/15 08:44:04;;;;;;;5.80;2.00;;;28.10;72.30;;;;;;5095772;28;20036;-70
2023/08/15 08:46:31;;;;;;;7.40;2.45;;;28.10;71.60;;;;;;5095436;28;20199;-74
2023/08/15 08:49:00;;;;;;;7.80;2.67;;;28.00;72.20;;;;;;5095913;28;20051;-72
2023/08/15 08:51:27;;;;;;;7.35;2.50;;;27.80;74.00;;;;;;5093660;28;20069;-71
2023/08/15 08:53:54;;;;;;;5.55;1.90;;;27.70;74.20;;;;;;5094135;28;20040;-71
2023/08/15 08:56:24;;;;;;;7.30;2.45;;;27.50;74.50;;;;;;5095442;28;20044;-70
2023/08/15 08:59:01;;;;;;;6.53;2.22;;;27.50;76.70;;;;;;5094182;28;20075;-71
2023/08/15 09:01:33;;;;;;;6.22;2.45;;;27.30;76.30;;;;;;5093909;28;20464;-73
2023/08/15 09:03:59;;;;;;;6.13;2.17;;;27.10;78.50;;;;;;5095559;28;20102;-71
2023/08/15 09:06:28;;;;;;;8.25;2.38;;;26.90;81.10;;;;;;5095051;28;20075;-72
2023/08/15 09:08:57;;;;;;;7.15;1.92;;;26.80;85.40;;;;;;5095192;28;20093;-71
2023/08/15 09:11:23;;;;;;;5.78;2.20;;;26.70;86.50;;;;;;5094155;28;20050;-71
2023/08/15 09:13:52;;;;;;;7.38;2.22;;;26.60;87.70;;;;;;5094800;28;20035;-71
2023/08/15 09:16:18;;;;;;;7.78;2.75;;;26.40;90.30;;;;;;5094114;28;20055;-70
2023/08/15 09:18:47;;;;;;;7.85;2.50;;;26.30;91.30;;;;;;5094774;28;20115;-68
2023/08/15 09:21:13;;;;;;;5.93;2.33;;;26.30;92.50;;;;;;5093727;28;20620;-68
2023/08/15 09:23:44;;;;;;;5.18;2.33;;;26.20;93.10;;;;;;5093402;28;20442;-72
2023/08/15 09:26:14;;;;;;;4.32;1.80;;;26.20;94.40;;;;;;5094858;28;20040;-71
2023/08/15 09:28:41;;;;;;;7.25;2.40;;;26.20;94.00;;;;;;5094691;28;20047;-71
2023/08/15 09:31:09;;;;;;;8.77;2.13;;;26.20;94.00;;;;;;5093925;28;20439;-71
2023/08/15 09:33:38;;;;;;;6.80;2.30;;;26.10;94.60;;;;;;5094439;28;20040;-71
2023/08/15 09:36:06;;;;;;;6.85;2.22;;;25.90;94.60;;;;;;5094812;28;20059;-71
2023/08/15 09:38:32;;;;;;;9.20;2.72;;;25.80;95.30;;;;;;5094756;28;20047;-71
2023/08/15 09:40:59;;;;;;;5.93;2.20;;;25.60;96.30;;;;;;5094811;28;20051;-71
2023/08/15 09:43:25;;;;;;;8.65;2.20;;;25.50;97.10;;;;;;5094557;28;20039;-71
2023/08/15 09:45:52;;;;;;;4.88;1.98;;;25.50;97.40;;;;;;5094223;28;20132;-71
2023/08/15 09:48:19;;;;;;;7.43;2.22;;;25.60;97.20;;;;;;5094666;28;20051;-71
2023/08/15 09:50:48;;;;;;;9.00;2.10;;;25.50;97.10;;;;;;5094158;28;20086;-71
2023/08/15 09:53:14;;;;;;;5.72;2.10;;;25.50;97.30;;;;;;5094341;28;20039;-71
2023/08/15 09:55:41;;;;;;;8.13;1.98;;;25.50;97.30;;;;;;5093600;28;20361;-71
2023/08/15 09:58:07;;;;;;;7.20;1.80;;;25.50;97.10;;;;;;5093291;28;20051;-72
2023/08/15 10:00:35;;;;;;;6.00;1.93;;;25.50;97.30;;;;;;5094147;28;20094;-71
2023/08/15 10:03:14;;;;;;;6.40;1.77;;;25.60;96.60;;;;;;5093187;28;20426;-71
2023/08/15 10:05:45;;;;;;;6.23;1.90;;;25.80;97.40;;;;;;5093496;28;20036;-71
2023/08/15 10:08:11;;;;;;;5.37;1.83;;;25.80;95.40;;;;;;5094359;28;20048;-71
2023/08/15 10:10:38;;;;;;;5.57;1.93;;;25.90;94.70;;;;;;5093804;28;20118;-71
2023/08/15 10:13:06;;;;;;;5.43;2.17;;;26.00;94.00;;;;;;5093982;28;20048;-71
2023/08/15 10:15:34;;;;;;;5.57;2.00;;;25.90;92.40;;;;;;5093619;28;20040;-71
2023/08/15 10:18:01;;;;;;;6.17;1.80;;;25.80;92.50;;;;;;5093932;28;20052;-71
2023/08/15 10:20:35;;;;;;;4.90;1.80;;;25.80;91.20;;;;;;5093957;28;20044;-71
2023/08/15 10:23:01;;;;;;;;;;;25.70;92.30;;;;;;5094336;28;20127;-72
2023/08/15 10:25:27;;;;;;;4.27;1.47;;;25.70;92.50;;;;;;5093812;28;19970;-71
2023/08/15 10:27:54;;;;;;;5.47;1.87;;;25.70;92.40;;;;;;5092620;28;20047;-72
2023/08/15 10:30:33;;;;;;;6.87;2.30;;;25.70;92.10;;;;;;5093735;28;20051;-71
2023/08/15 10:33:01;;;;;;;4.60;1.80;;;25.80;93.20;;;;;;5093539;28;20039;-71
2023/08/15 10:35:31;;;;;;;6.23;2.20;;;25.80;92.70;;;;;;5093208;28;20062;-71
2023/08/15 10:37:57;;;;;;;6.13;2.03;;;25.80;92.60;;;;;;5093364;28;20044;-71
2023/08/15 10:40:37;;;;;;;5.30;1.87;;;25.70;92.80;;;;;;5093674;28;20040;-71
2023/08/15 10:43:11;;;;;;;6.53;1.80;;;25.80;93.10;;;;;;5092282;28;20161;-71
2023/08/15 10:45:42;;;;;;;6.10;2.27;;;25.90;92.80;;;;;;5093537;28;20379;-71
2023/08/15 10:48:09;;;;;;;8.77;2.23;;;25.90;91.70;;;;;;5093050;28;20492;-71
2023/08/15 10:50:36;;;;;;;5.80;1.73;;;26.00;92.20;;;;;;5093126;28;20040;-70
2023/08/15 10:53:04;;;;;;;6.60;2.10;;;26.10;92.20;;;;;;5093734;28;20379;-71
2023/08/15 10:55:34;;;;;;;6.47;2.17;;;26.20;91.90;;;;;;5092536;28;20040;-71
2023/08/15 10:58:09;;;;;;;6.20;2.07;;;26.20;92.10;;;;;;5093702;28;20487;-71
2023/08/15 11:00:36;;;;;;;5.63;2.00;;;26.20;91.80;;;;;;5093389;28;20047;-71
2023/08/15 11:03:02;;;;;;;6.80;1.93;;;26.20;92.20;;;;;;5093401;28;20054;-72
2023/08/15 11:05:28;;;;;;;5.43;1.80;;;26.20;92.20;;;;;;5093445;28;20036;-72
2023/08/15 11:08:09;;;;;;;3.95;1.80;;;26.20;92.10;;;;;;5092960;28;20471;-72
2023/08/15 11:10:35;;;;;;;6.85;2.05;;;26.20;90.90;;;;;;5093250;28;20460;-72
2023/08/15 11:13:00;;;;;;;6.00;2.27;;;26.30;91.50;;;;;;5093026;28;20131;-72
2023/08/15 11:15:26;;;;;;;5.60;2.10;;;26.30;91.10;;;;;;5093228;28;20094;-72
2023/08/15 11:17:53;;;;;;;8.45;1.60;;;26.30;90.40;;;;;;5096857;28;20123;-71
2023/08/15 11:20:20;;;;;;;6.35;2.00;;;26.20;90.00;;;;;;5097390;28;20044;-71
2023/08/15 11:22:56;;;;;;;5.87;1.60;;;26.20;90.60;;;;;;5096225;28;20044;-69
2023/08/15 11:25:21;;;;;;;5.00;1.50;;;26.30;92.10;;;;;;5097495;28;20392;-69
2023/08/15 11:27:50;;;;;;;4.93;1.87;;;26.30;89.80;;;;;;5079415;28;20039;-69
2023/08/15 11:30:16;;;;;;;6.60;2.00;;;26.20;89.40;;;;;;5097424;28;20048;-66
2023/08/15 11:32:42;;;;;;;5.67;1.87;;;26.10;88.40;;;;;;5095657;28;20072;-68
2023/08/15 11:35:10;;;;;;;3.83;1.60;;;26.00;89.00;;;;;;5096670;28;20065;-70
2023/08/15 11:37:37;;;;;;;5.60;2.00;;;25.90;90.20;;;;;;5095726;28;20047;-69
2023/08/15 11:40:05;;;;;;;7.10;2.00;;;25.90;91.30;;;;;;5096696;28;20051;-70
2023/08/15 11:42:32;;;;;;;4.23;1.57;;;25.80;92.00;;;;;;5096874;28;20036;-74
2023/08/15 11:45:22;;;;;;;6.17;2.03;;;25.70;91.70;;;;;;5096375;28;20392;-71
2023/08/15 11:48:03;;;;;;;7.17;2.23;;;25.50;92.30;;;;;;5085797;28;20056;-71
2023/08/15 11:50:31;;;;;;;5.93;1.60;;;25.50;95.10;;;;;;5096789;28;20039;-71
2023/08/15 11:52:57;;;;;;;4.63;1.70;;;25.50;94.70;;;;;;5096421;28;20043;-71
2023/08/15 11:55:24;;;;;;;4.27;1.90;;;25.50;95.00;;;;;;5095346;28;20047;-71
2023/08/15 11:57:50;;;;;;;4.97;1.67;;;25.50;95.10;;;;;;5096443;28;20079;-71
2023/08/15 12:00:20;;;;;;;7.60;2.00;;;25.50;95.60;;;;;;5095462;28;20032;-68
2023/08/15 12:02:49;;;;;;;6.07;2.00;;;25.50;96.80;;;;;;5095083;28;20044;-71
2023/08/15 12:05:16;;;;;;;8.57;2.60;;;25.50;96.80;;;;;;5096490;28;20067;-71
2023/08/15 12:07:43;;;;;;;6.40;2.30;;;25.40;97.00;;;;;;5095165;28;20051;-71
2023/08/15 12:10:14;;;;;;;6.70;1.80;;;25.30;97.30;;;;;;5096305;28;20101;-70
2023/08/15 12:12:45;;;;;;;4.53;1.83;;;25.20;98.60;;;;;;5096353;28;20115;-68
2023/08/15 12:15:14;;;;;;;7.73;2.83;;;25.30;98.80;;;;;;5094967;28;20372;-71
2023/08/15 12:17:40;;;;;;;6.57;2.33;;;25.30;98.30;;;;;;5096013;28;20480;-70
2023/08/15 12:20:11;;;;;;;6.53;2.37;;;25.20;98.30;;;;;;5094798;28;20102;-69
2023/08/15 12:22:41;;;;;;;6.87;2.47;;;25.10;98.20;;;;;;5096405;28;20075;-70
2023/08/15 12:25:08;;;;;;;7.33;2.40;;;25.00;99.10;;;;;;5096029;28;20040;-71
2023/08/15 12:27:35;;;;;;;7.50;1.93;;;24.90;99.80;;;;;;5095744;28;20123;-71
2023/08/15 12:30:02;;;;;;;8.20;2.47;;;24.90;99.90;;;;;;5095625;28;20440;-72
2023/08/15 12:32:28;;;;;;;7.60;2.50;;;24.90;99.90;;;;;;5095865;28;20047;-72
2023/08/15 12:34:54;;;;;;;7.00;2.37;;;24.90;99.90;;;;;;5094246;28;20498;-72
2023/08/15 12:37:20;;;;;;;5.43;2.23;;;25.00;99.90;;;;;;5096111;28;20052;-70
2023/08/15 12:39:45;;;;;;;8.13;3.10;;;25.00;99.90;;;;;;5095787;28;20459;-70
2023/08/15 12:42:15;;;;;;;6.60;2.33;;;24.90;99.90;;;;;;5095474;28;20047;-71